sensor_id;sensor_type;location;lat;lon;timestamp;P1;durP1;ratioP1;P2;durP2;ratioP2
65358;SDS011;52491;45.900;6.346;2023-06-14T00:01:34;2.92;;;2.72;;
65358;SDS011;52491;45.900;6.346;2023-06-14T00:04:00;3.67;;;2.95;;
65358;SDS011;52491;45.900;6.346;2023-06-14T00:06:26;3.28;;;2.90;;
65358;SDS011;52491;45.900;6.346;2023-06-14T00:08:53;3.00;;;2.80;;
65358;SDS011;52491;45.900;6.346;2023-06-14T00:11:19;4.05;;;2.92;;
65358;SDS011;52491;45.900;6.346;2023-06-14T00:13:45;2.00;;;1.90;;
65358;SDS011;52491;45.900;6.346;2023-06-14T00:16:11;2.63;;;2.30;;
65358;SDS011;52491;45.900;6.346;2023-06-14T00:18:38;3.65;;;2.13;;
65358;SDS011;52491;45.900;6.346;2023-06-14T00:21:04;3.53;;;2.38;;
65358;SDS011;52491;45.900;6.346;2023-06-14T00:23:30;4.00;;;2.92;;
65358;SDS011;52491;45.900;6.346;2023-06-14T00:25:55;2.65;;;2.45;;
65358;SDS011;52491;45.900;6.346;2023-06-14T00:28:21;3.10;;;2.65;;
65358;SDS011;52491;45.900;6.346;2023-06-14T00:30:48;3.33;;;2.67;;
65358;SDS011;52491;45.900;6.346;2023-06-14T00:33:14;2.83;;;2.08;;
65358;SDS011;52491;45.900;6.346;2023-06-14T00:35:39;3.17;;;2.50;;
65358;SDS011;52491;45.900;6.346;2023-06-14T00:38:05;2.28;;;2.08;;
65358;SDS011;52491;45.900;6.346;2023-06-14T00:40:30;2.75;;;2.53;;
65358;SDS011;52491;45.900;6.346;2023-06-14T00:42:56;2.95;;;2.28;;
65358;SDS011;52491;45.900;6.346;2023-06-14T00:45:22;2.67;;;2.47;;
65358;SDS011;52491;45.900;6.346;2023-06-14T00:47:47;1.75;;;1.63;;
65358;SDS011;52491;45.900;6.346;2023-06-14T00:50:16;4.25;;;2.65;;
65358;SDS011;52491;45.900;6.346;2023-06-14T00:52:42;4.22;;;2.10;;
65358;SDS011;52491;45.900;6.346;2023-06-14T00:55:07;2.65;;;2.45;;
65358;SDS011;52491;45.900;6.346;2023-06-14T00:57:34;2.83;;;2.53;;
65358;SDS011;52491;45.900;6.346;2023-06-14T01:00:02;1.90;;;1.80;;
65358;SDS011;52491;45.900;6.346;2023-06-14T01:02:33;2.50;;;2.30;;
65358;SDS011;52491;45.900;6.346;2023-06-14T01:04:59;2.47;;;2.17;;
65358;SDS011;52491;45.900;6.346;2023-06-14T01:12:44;2.92;;;2.17;;
65358;SDS011;52491;45.900;6.346;2023-06-14T01:15:20;2.25;;;2.05;;
65358;SDS011;52491;45.900;6.346;2023-06-14T01:17:46;2.50;;;2.08;;
65358;SDS011;52491;45.900;6.346;2023-06-14T01:20:16;2.90;;;2.33;;
65358;SDS011;52491;45.900;6.346;2023-06-14T01:22:54;2.10;;;2.00;;
65358;SDS011;52491;45.900;6.346;2023-06-14T01:25:20;3.67;;;2.63;;
65358;SDS011;52491;45.900;6.346;2023-06-14T01:27:51;2.78;;;2.25;;
65358;SDS011;52491;45.900;6.346;2023-06-14T01:30:19;2.63;;;2.10;;
65358;SDS011;52491;45.900;6.346;2023-06-14T01:32:46;2.30;;;2.10;;
65358;SDS011;52491;45.900;6.346;2023-06-14T01:35:13;1.98;;;1.80;;
65358;SDS011;52491;45.900;6.346;2023-06-14T01:37:39;2.60;;;2.40;;
65358;SDS011;52491;45.900;6.346;2023-06-14T01:40:07;2.50;;;2.10;;
65358;SDS011;52491;45.900;6.346;2023-06-14T01:42:34;2.25;;;2.05;;
65358;SDS011;52491;45.900;6.346;2023-06-14T01:45:02;1.63;;;1.52;;
65358;SDS011;52491;45.900;6.346;2023-06-14T01:47:30;3.35;;;2.40;;
65358;SDS011;52491;45.900;6.346;2023-06-14T01:49:56;2.50;;;1.63;;
65358;SDS011;52491;45.900;6.346;2023-06-14T01:52:21;2.35;;;2.15;;
65358;SDS011;52491;45.900;6.346;2023-06-14T01:54:49;2.83;;;2.40;;
65358;SDS011;52491;45.900;6.346;2023-06-14T01:57:15;4.75;;;2.50;;
65358;SDS011;52491;45.900;6.346;2023-06-14T01:59:41;2.22;;;2.00;;
65358;SDS011;52491;45.900;6.346;2023-06-14T02:02:07;2.08;;;1.90;;
65358;SDS011;52491;45.900;6.346;2023-06-14T02:04:32;2.47;;;2.17;;
65358;SDS011;52491;45.900;6.346;2023-06-14T02:06:58;2.05;;;1.75;;
65358;SDS011;52491;45.900;6.346;2023-06-14T02:09:24;3.28;;;2.38;;
65358;SDS011;52491;45.900;6.346;2023-06-14T02:11:49;2.15;;;1.58;;
65358;SDS011;52491;45.900;6.346;2023-06-14T02:14:15;1.90;;;1.80;;
65358;SDS011;52491;45.900;6.346;2023-06-14T02:16:42;2.15;;;1.95;;
65358;SDS011;52491;45.900;6.346;2023-06-14T02:19:14;1.83;;;1.73;;
65358;SDS011;52491;45.900;6.346;2023-06-14T02:21:41;2.70;;;2.45;;
65358;SDS011;52491;45.900;6.346;2023-06-14T02:24:07;3.92;;;2.22;;
65358;SDS011;52491;45.900;6.346;2023-06-14T02:26:33;5.97;;;1.95;;
65358;SDS011;52491;45.900;6.346;2023-06-14T02:28:58;2.40;;;2.20;;
65358;SDS011;52491;45.900;6.346;2023-06-14T02:31:24;3.70;;;2.17;;
65358;SDS011;52491;45.900;6.346;2023-06-14T02:33:50;3.25;;;1.80;;
65358;SDS011;52491;45.900;6.346;2023-06-14T02:36:16;2.80;;;2.20;;
65358;SDS011;52491;45.900;6.346;2023-06-14T02:38:42;3.45;;;1.70;;
65358;SDS011;52491;45.900;6.346;2023-06-14T02:41:07;3.58;;;2.00;;
65358;SDS011;52491;45.900;6.346;2023-06-14T02:43:33;2.10;;;1.92;;
65358;SDS011;52491;45.900;6.346;2023-06-14T02:45:58;1.98;;;1.88;;
65358;SDS011;52491;45.900;6.346;2023-06-14T02:48:24;2.30;;;1.70;;
65358;SDS011;52491;45.900;6.346;2023-06-14T02:50:49;2.25;;;2.05;;
65358;SDS011;52491;45.900;6.346;2023-06-14T02:53:16;1.55;;;1.45;;
65358;SDS011;52491;45.900;6.346;2023-06-14T02:55:42;1.80;;;1.70;;
65358;SDS011;52491;45.900;6.346;2023-06-14T02:58:07;1.83;;;1.73;;
65358;SDS011;52491;45.900;6.346;2023-06-14T03:00:33;2.75;;;2.55;;
65358;SDS011;52491;45.900;6.346;2023-06-14T03:03:00;2.25;;;2.05;;
65358;SDS011;52491;45.900;6.346;2023-06-14T03:05:26;2.28;;;2.08;;
65358;SDS011;52491;45.900;6.346;2023-06-14T03:07:53;2.10;;;2.00;;
65358;SDS011;52491;45.900;6.346;2023-06-14T03:10:19;1.77;;;1.65;;
65358;SDS011;52491;45.900;6.346;2023-06-14T03:12:45;2.05;;;1.83;;
65358;SDS011;52491;45.900;6.346;2023-06-14T03:15:12;2.13;;;1.92;;
65358;SDS011;52491;45.900;6.346;2023-06-14T03:17:42;2.22;;;2.05;;
65358;SDS011;52491;45.900;6.346;2023-06-14T03:20:10;1.73;;;1.63;;
65358;SDS011;52491;45.900;6.346;2023-06-14T03:22:36;1.70;;;1.60;;
65358;SDS011;52491;45.900;6.346;2023-06-14T03:25:02;1.83;;;1.73;;
65358;SDS011;52491;45.900;6.346;2023-06-14T03:27:29;2.25;;;2.05;;
65358;SDS011;52491;45.900;6.346;2023-06-14T03:29:54;2.40;;;2.10;;
65358;SDS011;52491;45.900;6.346;2023-06-14T03:32:20;1.70;;;1.60;;
65358;SDS011;52491;45.900;6.346;2023-06-14T03:34:46;9.43;;;2.42;;
65358;SDS011;52491;45.900;6.346;2023-06-14T03:37:11;9.15;;;2.40;;
65358;SDS011;52491;45.900;6.346;2023-06-14T03:39:37;2.85;;;1.55;;
65358;SDS011;52491;45.900;6.346;2023-06-14T03:42:03;6.47;;;2.03;;
65358;SDS011;52491;45.900;6.346;2023-06-14T03:44:28;3.03;;;1.90;;
65358;SDS011;52491;45.900;6.346;2023-06-14T03:46:54;5.18;;;1.85;;
65358;SDS011;52491;45.900;6.346;2023-06-14T03:49:20;6.40;;;2.67;;
65358;SDS011;52491;45.900;6.346;2023-06-14T03:51:46;3.75;;;1.92;;
65358;SDS011;52491;45.900;6.346;2023-06-14T03:54:16;5.05;;;2.13;;
65358;SDS011;52491;45.900;6.346;2023-06-14T03:56:41;5.47;;;2.22;;
65358;SDS011;52491;45.900;6.346;2023-06-14T03:59:07;3.72;;;2.03;;
65358;SDS011;52491;45.900;6.346;2023-06-14T04:01:32;2.63;;;2.28;;
65358;SDS011;52491;45.900;6.346;2023-06-14T04:03:58;2.20;;;2.00;;
65358;SDS011;52491;45.900;6.346;2023-06-14T04:06:24;2.85;;;2.35;;
65358;SDS011;52491;45.900;6.346;2023-06-14T04:08:56;3.13;;;1.90;;
65358;SDS011;52491;45.900;6.346;2023-06-14T04:11:22;4.82;;;2.58;;
65358;SDS011;52491;45.900;6.346;2023-06-14T04:13:47;4.25;;;1.90;;
65358;SDS011;52491;45.900;6.346;2023-06-14T04:16:13;2.83;;;1.85;;
65358;SDS011;52491;45.900;6.346;2023-06-14T04:18:39;2.17;;;1.90;;
65358;SDS011;52491;45.900;6.346;2023-06-14T04:21:05;3.83;;;2.45;;
65358;SDS011;52491;45.900;6.346;2023-06-14T04:23:31;2.67;;;2.15;;
65358;SDS011;52491;45.900;6.346;2023-06-14T04:25:57;8.07;;;2.13;;
65358;SDS011;52491;45.900;6.346;2023-06-14T04:28:27;2.58;;;1.70;;
65358;SDS011;52491;45.900;6.346;2023-06-14T04:30:53;3.35;;;1.77;;
65358;SDS011;52491;45.900;6.346;2023-06-14T04:33:19;5.00;;;2.00;;
65358;SDS011;52491;45.900;6.346;2023-06-14T04:35:45;3.42;;;1.98;;
65358;SDS011;52491;45.900;6.346;2023-06-14T04:38:12;2.47;;;2.28;;
65358;SDS011;52491;45.900;6.346;2023-06-14T04:40:38;15.25;;;2.47;;
65358;SDS011;52491;45.900;6.346;2023-06-14T04:43:11;4.00;;;2.00;;
65358;SDS011;52491;45.900;6.346;2023-06-14T04:45:42;1.92;;;1.70;;
65358;SDS011;52491;45.900;6.346;2023-06-14T04:48:10;2.15;;;1.83;;
65358;SDS011;52491;45.900;6.346;2023-06-14T04:50:37;1.90;;;1.80;;
65358;SDS011;52491;45.900;6.346;2023-06-14T04:53:02;3.25;;;1.73;;
65358;SDS011;52491;45.900;6.346;2023-06-14T04:55:28;3.63;;;1.40;;
65358;SDS011;52491;45.900;6.346;2023-06-14T04:57:53;2.65;;;1.80;;
65358;SDS011;52491;45.900;6.346;2023-06-14T05:00:20;4.53;;;1.75;;
65358;SDS011;52491;45.900;6.346;2023-06-14T05:02:46;7.32;;;2.75;;
65358;SDS011;52491;45.900;6.346;2023-06-14T05:05:12;7.57;;;2.75;;
65358;SDS011;52491;45.900;6.346;2023-06-14T05:07:37;6.95;;;3.00;;
65358;SDS011;52491;45.900;6.346;2023-06-14T05:10:03;5.25;;;2.70;;
65358;SDS011;52491;45.900;6.346;2023-06-14T05:12:30;6.25;;;2.47;;
65358;SDS011;52491;45.900;6.346;2023-06-14T05:14:55;2.70;;;2.45;;
65358;SDS011;52491;45.900;6.346;2023-06-14T05:17:23;15.63;;;2.80;;
65358;SDS011;52491;45.900;6.346;2023-06-14T05:19:49;6.60;;;2.30;;
65358;SDS011;52491;45.900;6.346;2023-06-14T05:22:14;4.32;;;2.70;;
65358;SDS011;52491;45.900;6.346;2023-06-14T05:24:40;9.23;;;3.15;;
65358;SDS011;52491;45.900;6.346;2023-06-14T05:27:07;9.15;;;2.50;;
65358;SDS011;52491;45.900;6.346;2023-06-14T05:29:33;6.93;;;2.50;;
65358;SDS011;52491;45.900;6.346;2023-06-14T05:31:58;8.23;;;3.72;;
65358;SDS011;52491;45.900;6.346;2023-06-14T05:34:24;6.55;;;2.60;;
65358;SDS011;52491;45.900;6.346;2023-06-14T05:36:50;2.97;;;2.45;;
65358;SDS011;52491;45.900;6.346;2023-06-14T05:39:16;7.40;;;2.97;;
65358;SDS011;52491;45.900;6.346;2023-06-14T05:41:42;7.05;;;2.45;;
65358;SDS011;52491;45.900;6.346;2023-06-14T05:44:07;6.65;;;3.13;;
65358;SDS011;52491;45.900;6.346;2023-06-14T05:46:34;6.43;;;2.65;;
65358;SDS011;52491;45.900;6.346;2023-06-14T05:49:00;4.25;;;2.90;;
65358;SDS011;52491;45.900;6.346;2023-06-14T05:51:25;6.22;;;2.60;;
65358;SDS011;52491;45.900;6.346;2023-06-14T05:53:51;3.55;;;2.63;;
65358;SDS011;52491;45.900;6.346;2023-06-14T05:56:17;3.35;;;2.40;;
65358;SDS011;52491;45.900;6.346;2023-06-14T05:58:44;3.00;;;2.70;;
65358;SDS011;52491;45.900;6.346;2023-06-14T06:01:10;3.83;;;2.55;;
65358;SDS011;52491;45.900;6.346;2023-06-14T06:03:36;3.22;;;2.60;;
65358;SDS011;52491;45.900;6.346;2023-06-14T06:06:02;3.47;;;2.45;;
65358;SDS011;52491;45.900;6.346;2023-06-14T06:08:28;2.78;;;2.17;;
65358;SDS011;52491;45.900;6.346;2023-06-14T06:10:54;3.28;;;2.72;;
65358;SDS011;52491;45.900;6.346;2023-06-14T06:13:19;3.70;;;3.22;;
65358;SDS011;52491;45.900;6.346;2023-06-14T06:15:45;2.50;;;2.28;;
65358;SDS011;52491;45.900;6.346;2023-06-14T06:18:11;2.72;;;2.45;;
65358;SDS011;52491;45.900;6.346;2023-06-14T06:20:37;3.17;;;2.03;;
65358;SDS011;52491;45.900;6.346;2023-06-14T06:23:03;2.10;;;1.90;;
65358;SDS011;52491;45.900;6.346;2023-06-14T06:25:28;2.28;;;2.08;;
65358;SDS011;52491;45.900;6.346;2023-06-14T06:27:56;2.45;;;2.15;;
65358;SDS011;52491;45.900;6.346;2023-06-14T06:30:23;2.72;;;2.45;;
65358;SDS011;52491;45.900;6.346;2023-06-14T06:32:49;3.08;;;2.17;;
65358;SDS011;52491;45.900;6.346;2023-06-14T06:35:15;8.23;;;2.80;;
65358;SDS011;52491;45.900;6.346;2023-06-14T06:37:41;2.30;;;2.15;;
65358;SDS011;52491;45.900;6.346;2023-06-14T06:40:07;2.38;;;2.20;;
65358;SDS011;52491;45.900;6.346;2023-06-14T06:42:34;3.78;;;2.53;;
65358;SDS011;52491;45.900;6.346;2023-06-14T06:45:00;4.20;;;2.63;;
65358;SDS011;52491;45.900;6.346;2023-06-14T06:47:25;5.00;;;2.55;;
65358;SDS011;52491;45.900;6.346;2023-06-14T06:49:51;4.40;;;2.50;;
65358;SDS011;52491;45.900;6.346;2023-06-14T06:52:17;3.60;;;2.58;;
65358;SDS011;52491;45.900;6.346;2023-06-14T06:54:43;2.85;;;2.65;;
65358;SDS011;52491;45.900;6.346;2023-06-14T06:57:09;2.90;;;2.60;;
65358;SDS011;52491;45.900;6.346;2023-06-14T06:59:35;2.25;;;2.05;;
65358;SDS011;52491;45.900;6.346;2023-06-14T07:02:02;4.50;;;2.42;;
65358;SDS011;52491;45.900;6.346;2023-06-14T07:04:27;3.53;;;2.45;;
65358;SDS011;52491;45.900;6.346;2023-06-14T07:06:53;3.88;;;2.60;;
65358;SDS011;52491;45.900;6.346;2023-06-14T07:09:18;2.65;;;2.45;;
65358;SDS011;52491;45.900;6.346;2023-06-14T07:11:45;2.92;;;2.40;;
65358;SDS011;52491;45.900;6.346;2023-06-14T07:14:11;4.25;;;2.40;;
65358;SDS011;52491;45.900;6.346;2023-06-14T07:16:37;2.83;;;2.63;;
65358;SDS011;52491;45.900;6.346;2023-06-14T07:19:03;4.72;;;2.17;;
65358;SDS011;52491;45.900;6.346;2023-06-14T07:21:29;3.50;;;2.42;;
65358;SDS011;52491;45.900;6.346;2023-06-14T07:23:55;6.97;;;2.42;;
65358;SDS011;52491;45.900;6.346;2023-06-14T07:26:21;3.10;;;2.45;;
65358;SDS011;52491;45.900;6.346;2023-06-14T07:28:47;2.42;;;2.22;;
65358;SDS011;52491;45.900;6.346;2023-06-14T07:31:14;5.65;;;2.85;;
65358;SDS011;52491;45.900;6.346;2023-06-14T07:33:41;3.78;;;1.90;;
65358;SDS011;52491;45.900;6.346;2023-06-14T07:36:07;3.92;;;2.00;;
65358;SDS011;52491;45.900;6.346;2023-06-14T07:38:33;2.65;;;2.10;;
65358;SDS011;52491;45.900;6.346;2023-06-14T07:40:59;3.47;;;2.97;;
65358;SDS011;52491;45.900;6.346;2023-06-14T07:43:26;1.83;;;1.73;;
65358;SDS011;52491;45.900;6.346;2023-06-14T07:45:52;4.60;;;2.72;;
65358;SDS011;52491;45.900;6.346;2023-06-14T07:48:18;4.75;;;2.03;;
65358;SDS011;52491;45.900;6.346;2023-06-14T07:50:43;2.60;;;2.40;;
65358;SDS011;52491;45.900;6.346;2023-06-14T07:53:09;2.28;;;2.08;;
65358;SDS011;52491;45.900;6.346;2023-06-14T07:55:35;3.78;;;2.35;;
65358;SDS011;52491;45.900;6.346;2023-06-14T07:58:05;5.22;;;2.05;;
65358;SDS011;52491;45.900;6.346;2023-06-14T08:00:31;4.13;;;2.42;;
65358;SDS011;52491;45.900;6.346;2023-06-14T08:02:57;2.55;;;2.35;;
65358;SDS011;52491;45.900;6.346;2023-06-14T08:05:24;4.25;;;2.58;;
65358;SDS011;52491;45.900;6.346;2023-06-14T08:07:53;4.43;;;2.97;;
65358;SDS011;52491;45.900;6.346;2023-06-14T08:10:19;3.97;;;2.85;;
65358;SDS011;52491;45.900;6.346;2023-06-14T08:12:46;3.42;;;2.42;;
65358;SDS011;52491;45.900;6.346;2023-06-14T08:15:11;2.95;;;2.67;;
65358;SDS011;52491;45.900;6.346;2023-06-14T08:17:37;3.45;;;2.53;;
65358;SDS011;52491;45.900;6.346;2023-06-14T08:20:03;4.75;;;2.20;;
65358;SDS011;52491;45.900;6.346;2023-06-14T08:22:30;3.75;;;2.10;;
65358;SDS011;52491;45.900;6.346;2023-06-14T08:24:59;2.30;;;2.08;;
65358;SDS011;52491;45.900;6.346;2023-06-14T08:27:26;8.43;;;2.70;;
65358;SDS011;52491;45.900;6.346;2023-06-14T08:29:51;3.45;;;2.63;;
65358;SDS011;52491;45.900;6.346;2023-06-14T08:32:17;2.90;;;2.17;;
65358;SDS011;52491;45.900;6.346;2023-06-14T08:34:42;2.85;;;2.42;;
65358;SDS011;52491;45.900;6.346;2023-06-14T08:37:08;3.13;;;2.47;;
65358;SDS011;52491;45.900;6.346;2023-06-14T08:39:34;2.67;;;2.47;;
65358;SDS011;52491;45.900;6.346;2023-06-14T08:42:00;2.42;;;2.22;;
65358;SDS011;52491;45.900;6.346;2023-06-14T08:44:28;3.42;;;2.45;;
65358;SDS011;52491;45.900;6.346;2023-06-14T08:46:54;4.38;;;2.33;;
65358;SDS011;52491;45.900;6.346;2023-06-14T08:49:22;3.83;;;2.35;;
65358;SDS011;52491;45.900;6.346;2023-06-14T08:51:57;4.10;;;2.47;;
65358;SDS011;52491;45.900;6.346;2023-06-14T08:54:28;2.75;;;2.13;;
65358;SDS011;52491;45.900;6.346;2023-06-14T08:56:59;5.53;;;2.28;;
65358;SDS011;52491;45.900;6.346;2023-06-14T08:59:28;1.70;;;1.60;;
65358;SDS011;52491;45.900;6.346;2023-06-14T09:01:54;3.30;;;2.53;;
65358;SDS011;52491;45.900;6.346;2023-06-14T09:04:23;3.78;;;2.22;;
65358;SDS011;52491;45.900;6.346;2023-06-14T09:06:55;2.55;;;2.35;;
65358;SDS011;52491;45.900;6.346;2023-06-14T09:09:21;2.63;;;2.40;;
65358;SDS011;52491;45.900;6.346;2023-06-14T09:11:51;2.90;;;1.95;;
65358;SDS011;52491;45.900;6.346;2023-06-14T09:14:19;2.60;;;2.40;;
65358;SDS011;52491;45.900;6.346;2023-06-14T09:16:45;2.38;;;2.03;;
65358;SDS011;52491;45.900;6.346;2023-06-14T09:19:14;2.38;;;2.17;;
65358;SDS011;52491;45.900;6.346;2023-06-14T09:21:49;2.22;;;1.67;;
65358;SDS011;52491;45.900;6.346;2023-06-14T09:24:15;2.25;;;2.05;;
65358;SDS011;52491;45.900;6.346;2023-06-14T09:26:41;2.90;;;2.40;;
65358;SDS011;52491;45.900;6.346;2023-06-14T09:29:06;2.28;;;2.08;;
65358;SDS011;52491;45.900;6.346;2023-06-14T09:31:32;3.25;;;2.28;;
65358;SDS011;52491;45.900;6.346;2023-06-14T09:33:58;2.10;;;1.95;;
65358;SDS011;52491;45.900;6.346;2023-06-14T09:36:26;3.00;;;2.30;;
65358;SDS011;52491;45.900;6.346;2023-06-14T09:38:53;8.32;;;2.33;;
65358;SDS011;52491;45.900;6.346;2023-06-14T09:41:19;2.67;;;2.30;;
65358;SDS011;52491;45.900;6.346;2023-06-14T09:43:46;2.90;;;2.53;;
65358;SDS011;52491;45.900;6.346;2023-06-14T09:46:12;4.63;;;2.40;;
65358;SDS011;52491;45.900;6.346;2023-06-14T09:48:38;2.97;;;2.30;;
65358;SDS011;52491;45.900;6.346;2023-06-14T09:51:09;2.50;;;2.30;;
65358;SDS011;52491;45.900;6.346;2023-06-14T09:53:35;2.17;;;2.00;;
65358;SDS011;52491;45.900;6.346;2023-06-14T09:56:02;2.63;;;2.30;;
65358;SDS011;52491;45.900;6.346;2023-06-14T09:58:30;5.03;;;2.33;;
65358;SDS011;52491;45.900;6.346;2023-06-14T10:00:58;2.22;;;2.05;;
65358;SDS011;52491;45.900;6.346;2023-06-14T10:03:25;2.95;;;2.40;;
65358;SDS011;52491;45.900;6.346;2023-06-14T10:05:54;2.55;;;2.35;;
65358;SDS011;52491;45.900;6.346;2023-06-14T10:08:27;2.25;;;1.90;;
65358;SDS011;52491;45.900;6.346;2023-06-14T10:10:55;2.30;;;2.00;;
65358;SDS011;52491;45.900;6.346;2023-06-14T10:13:21;1.70;;;1.60;;
65358;SDS011;52491;45.900;6.346;2023-06-14T10:16:09;4.47;;;2.17;;
65358;SDS011;52491;45.900;6.346;2023-06-14T10:18:42;2.70;;;2.50;;
65358;SDS011;52491;45.900;6.346;2023-06-14T10:23:50;3.25;;;2.95;;
65358;SDS011;52491;45.900;6.346;2023-06-14T10:26:17;5.40;;;3.63;;
65358;SDS011;52491;45.900;6.346;2023-06-14T10:28:55;5.60;;;3.22;;
65358;SDS011;52491;45.900;6.346;2023-06-14T10:34:08;7.10;;;3.65;;
65358;SDS011;52491;45.900;6.346;2023-06-14T10:36:34;4.63;;;3.47;;
65358;SDS011;52491;45.900;6.346;2023-06-14T10:41:29;4.90;;;3.35;;
65358;SDS011;52491;45.900;6.346;2023-06-14T10:44:17;5.03;;;3.42;;
65358;SDS011;52491;45.900;6.346;2023-06-14T10:47:00;4.05;;;2.88;;
65358;SDS011;52491;45.900;6.346;2023-06-14T10:52:12;4.85;;;3.42;;
65358;SDS011;52491;45.900;6.346;2023-06-14T10:57:45;6.45;;;4.35;;
65358;SDS011;52491;45.900;6.346;2023-06-14T11:00:30;4.35;;;3.35;;
65358;SDS011;52491;45.900;6.346;2023-06-14T11:05:57;6.07;;;3.28;;
65358;SDS011;52491;45.900;6.346;2023-06-14T11:11:10;3.83;;;3.38;;
65358;SDS011;52491;45.900;6.346;2023-06-14T11:13:38;9.10;;;4.00;;
65358;SDS011;52491;45.900;6.346;2023-06-14T11:16:12;4.30;;;3.42;;
65358;SDS011;52491;45.900;6.346;2023-06-14T11:18:39;7.40;;;2.97;;
65358;SDS011;52491;45.900;6.346;2023-06-14T11:21:05;5.40;;;3.67;;
65358;SDS011;52491;45.900;6.346;2023-06-14T11:23:31;4.78;;;3.72;;
65358;SDS011;52491;45.900;6.346;2023-06-14T11:25:56;3.70;;;3.40;;
65358;SDS011;52491;45.900;6.346;2023-06-14T11:28:22;4.63;;;3.63;;
65358;SDS011;52491;45.900;6.346;2023-06-14T11:30:49;5.15;;;3.53;;
65358;SDS011;52491;45.900;6.346;2023-06-14T11:33:25;3.70;;;3.30;;
65358;SDS011;52491;45.900;6.346;2023-06-14T11:35:51;4.28;;;3.45;;
65358;SDS011;52491;45.900;6.346;2023-06-14T11:38:17;8.50;;;3.60;;
65358;SDS011;52491;45.900;6.346;2023-06-14T11:40:43;3.45;;;3.00;;
65358;SDS011;52491;45.900;6.346;2023-06-14T11:43:09;4.32;;;3.75;;
65358;SDS011;52491;45.900;6.346;2023-06-14T11:45:35;3.45;;;3.15;;
65358;SDS011;52491;45.900;6.346;2023-06-14T11:48:01;7.68;;;3.75;;
65358;SDS011;52491;45.900;6.346;2023-06-14T11:50:27;3.88;;;3.58;;
65358;SDS011;52491;45.900;6.346;2023-06-14T11:52:54;3.58;;;2.85;;
65358;SDS011;52491;45.900;6.346;2023-06-14T11:55:32;6.10;;;3.53;;
65358;SDS011;52491;45.900;6.346;2023-06-14T11:58:06;6.15;;;3.60;;
65358;SDS011;52491;45.900;6.346;2023-06-14T12:00:32;5.18;;;3.67;;
65358;SDS011;52491;45.900;6.346;2023-06-14T12:03:00;4.32;;;3.92;;
65358;SDS011;52491;45.900;6.346;2023-06-14T12:05:27;5.53;;;3.17;;
65358;SDS011;52491;45.900;6.346;2023-06-14T12:07:59;3.60;;;3.30;;
65358;SDS011;52491;45.900;6.346;2023-06-14T12:10:27;4.55;;;3.13;;
65358;SDS011;52491;45.900;6.346;2023-06-14T12:12:58;4.18;;;3.13;;
65358;SDS011;52491;45.900;6.346;2023-06-14T12:15:24;3.95;;;3.25;;
65358;SDS011;52491;45.900;6.346;2023-06-14T12:17:50;6.32;;;4.13;;
65358;SDS011;52491;45.900;6.346;2023-06-14T12:20:15;4.88;;;3.65;;
65358;SDS011;52491;45.900;6.346;2023-06-14T12:25:37;9.10;;;3.17;;
65358;SDS011;52491;45.900;6.346;2023-06-14T12:28:06;3.47;;;3.13;;
65358;SDS011;52491;45.900;6.346;2023-06-14T12:30:33;3.00;;;2.70;;
65358;SDS011;52491;45.900;6.346;2023-06-14T12:33:04;5.30;;;3.42;;
65358;SDS011;52491;45.900;6.346;2023-06-14T12:35:30;6.95;;;3.03;;
65358;SDS011;52491;45.900;6.346;2023-06-14T12:37:56;7.03;;;3.65;;
65358;SDS011;52491;45.900;6.346;2023-06-14T12:40:22;6.47;;;3.85;;
65358;SDS011;52491;45.900;6.346;2023-06-14T12:42:48;6.97;;;4.15;;
65358;SDS011;52491;45.900;6.346;2023-06-14T12:45:14;6.53;;;3.58;;
65358;SDS011;52491;45.900;6.346;2023-06-14T12:47:40;4.10;;;2.75;;
65358;SDS011;52491;45.900;6.346;2023-06-14T12:50:05;4.25;;;3.40;;
65358;SDS011;52491;45.900;6.346;2023-06-14T12:52:32;4.60;;;3.10;;
65358;SDS011;52491;45.900;6.346;2023-06-14T12:55:02;4.10;;;3.13;;
65358;SDS011;52491;45.900;6.346;2023-06-14T12:57:31;3.38;;;3.08;;
65358;SDS011;52491;45.900;6.346;2023-06-14T12:59:57;3.58;;;3.28;;
65358;SDS011;52491;45.900;6.346;2023-06-14T13:02:24;3.28;;;2.53;;
65358;SDS011;52491;45.900;6.346;2023-06-14T13:04:50;3.67;;;2.97;;
65358;SDS011;52491;45.900;6.346;2023-06-14T13:07:16;2.80;;;2.55;;
65358;SDS011;52491;45.900;6.346;2023-06-14T13:09:42;4.80;;;3.17;;
65358;SDS011;52491;45.900;6.346;2023-06-14T13:12:09;5.82;;;3.65;;
65358;SDS011;52491;45.900;6.346;2023-06-14T13:14:41;3.47;;;3.00;;
65358;SDS011;52491;45.900;6.346;2023-06-14T13:17:10;4.53;;;2.63;;
65358;SDS011;52491;45.900;6.346;2023-06-14T13:19:36;5.18;;;3.13;;
65358;SDS011;52491;45.900;6.346;2023-06-14T13:22:02;3.03;;;2.72;;
65358;SDS011;52491;45.900;6.346;2023-06-14T13:24:28;5.03;;;2.95;;
65358;SDS011;52491;45.900;6.346;2023-06-14T13:26:55;3.05;;;2.75;;
65358;SDS011;52491;45.900;6.346;2023-06-14T13:29:21;3.20;;;2.88;;
65358;SDS011;52491;45.900;6.346;2023-06-14T13:31:46;3.40;;;2.78;;
65358;SDS011;52491;45.900;6.346;2023-06-14T13:34:12;3.55;;;3.25;;
65358;SDS011;52491;45.900;6.346;2023-06-14T13:36:37;3.00;;;2.60;;
65358;SDS011;52491;45.900;6.346;2023-06-14T13:39:04;3.55;;;2.83;;
65358;SDS011;52491;45.900;6.346;2023-06-14T13:41:30;2.97;;;2.78;;
65358;SDS011;52491;45.900;6.346;2023-06-14T13:43:57;2.67;;;2.33;;
65358;SDS011;52491;45.900;6.346;2023-06-14T13:46:24;6.60;;;3.20;;
65358;SDS011;52491;45.900;6.346;2023-06-14T13:48:49;4.40;;;3.92;;
65358;SDS011;52491;45.900;6.346;2023-06-14T13:51:15;3.08;;;2.78;;
65358;SDS011;52491;45.900;6.346;2023-06-14T13:53:42;5.32;;;3.20;;
65358;SDS011;52491;45.900;6.346;2023-06-14T13:56:08;3.35;;;2.80;;
65358;SDS011;52491;45.900;6.346;2023-06-14T13:58:34;3.70;;;3.15;;
65358;SDS011;52491;45.900;6.346;2023-06-14T14:01:00;4.15;;;3.72;;
65358;SDS011;52491;45.900;6.346;2023-06-14T14:03:26;4.47;;;2.38;;
65358;SDS011;52491;45.900;6.346;2023-06-14T14:05:52;3.40;;;3.10;;
65358;SDS011;52491;45.900;6.346;2023-06-14T14:08:18;5.80;;;2.70;;
65358;SDS011;52491;45.900;6.346;2023-06-14T14:10:43;3.55;;;2.33;;
65358;SDS011;52491;45.900;6.346;2023-06-14T14:13:09;3.85;;;2.70;;
65358;SDS011;52491;45.900;6.346;2023-06-14T14:15:35;5.30;;;3.10;;
65358;SDS011;52491;45.900;6.346;2023-06-14T14:18:00;5.47;;;3.03;;
65358;SDS011;52491;45.900;6.346;2023-06-14T14:20:26;2.55;;;2.13;;
65358;SDS011;52491;45.900;6.346;2023-06-14T14:22:51;4.80;;;3.17;;
65358;SDS011;52491;45.900;6.346;2023-06-14T14:25:17;5.95;;;3.20;;
65358;SDS011;52491;45.900;6.346;2023-06-14T14:27:42;2.90;;;2.70;;
65358;SDS011;52491;45.900;6.346;2023-06-14T14:30:08;3.17;;;2.88;;
65358;SDS011;52491;45.900;6.346;2023-06-14T14:32:33;3.15;;;2.92;;
65358;SDS011;52491;45.900;6.346;2023-06-14T14:34:59;6.65;;;2.78;;
65358;SDS011;52491;45.900;6.346;2023-06-14T14:37:25;2.70;;;2.47;;
65358;SDS011;52491;45.900;6.346;2023-06-14T14:39:50;4.03;;;2.63;;
65358;SDS011;52491;45.900;6.346;2023-06-14T14:42:16;4.28;;;2.78;;
65358;SDS011;52491;45.900;6.346;2023-06-14T14:44:41;3.28;;;2.97;;
65358;SDS011;52491;45.900;6.346;2023-06-14T14:47:07;2.92;;;2.63;;
65358;SDS011;52491;45.900;6.346;2023-06-14T14:49:33;3.15;;;2.85;;
65358;SDS011;52491;45.900;6.346;2023-06-14T14:51:58;3.85;;;2.53;;
65358;SDS011;52491;45.900;6.346;2023-06-14T14:54:24;3.05;;;2.65;;
65358;SDS011;52491;45.900;6.346;2023-06-14T14:56:50;3.42;;;2.65;;
65358;SDS011;52491;45.900;6.346;2023-06-14T14:59:17;3.80;;;2.85;;
65358;SDS011;52491;45.900;6.346;2023-06-14T15:01:43;3.63;;;3.03;;
65358;SDS011;52491;45.900;6.346;2023-06-14T15:04:10;2.95;;;2.08;;
65358;SDS011;52491;45.900;6.346;2023-06-14T15:06:36;3.47;;;2.92;;
65358;SDS011;52491;45.900;6.346;2023-06-14T15:09:03;4.20;;;3.25;;
65358;SDS011;52491;45.900;6.346;2023-06-14T15:11:29;3.05;;;2.70;;
65358;SDS011;52491;45.900;6.346;2023-06-14T15:13:54;3.28;;;2.63;;